createdAt,value
2023-05-05T00:01:03.901Z,85.07
2023-05-05T00:03:34.578Z,84.69
2023-05-05T00:06:03.184Z,84.24
2023-05-05T00:08:31.628Z,84.17
2023-05-05T00:10:59.771Z,84.17
2023-05-05T00:13:27.896Z,84.39
2023-05-05T00:15:56.283Z,84.66
2023-05-05T00:18:24.359Z,84.90
2023-05-05T00:20:52.691Z,85.29
2023-05-05T00:23:21.112Z,86.00
2023-05-05T00:25:49.112Z,86.06
2023-05-05T00:28:18.531Z,86.23
2023-05-05T00:30:46.723Z,86.34
2023-05-05T00:33:15.248Z,86.03
2023-05-05T00:35:43.674Z,85.85
2023-05-05T00:38:14.479Z,85.59
2023-05-05T00:40:43.178Z,85.61
2023-05-05T00:43:13.086Z,85.72
2023-05-05T00:45:44.364Z,85.70
2023-05-05T00:48:12.761Z,85.61
2023-05-05T00:50:44.597Z,85.49
2023-05-05T00:53:13.854Z,85.60
2023-05-05T00:55:42.305Z,86.02
2023-05-05T00:58:11.469Z,86.13
2023-05-05T01:00:39.821Z,86.30
2023-05-05T01:03:08.461Z,86.51
2023-05-05T01:06:05.637Z,86.34
2023-05-05T01:08:42.873Z,86.27
2023-05-05T01:11:27.106Z,86.19
2023-05-05T01:14:02.147Z,86.34
2023-05-05T01:16:34.621Z,86.27
2023-05-05T01:19:22.334Z,86.25
2023-05-05T01:22:02.512Z,86.71
2023-05-05T01:24:30.498Z,87.12
2023-05-05T01:27:06.635Z,87.72
2023-05-05T01:30:00.045Z,87.48
2023-05-05T01:32:36.186Z,87.35
2023-05-05T01:35:07.537Z,87.41
2023-05-05T01:37:47.735Z,87.06
2023-05-05T01:40:20.176Z,86.85
2023-05-05T01:42:49.274Z,86.72
2023-05-05T01:45:20.392Z,86.68
2023-05-05T01:47:49.274Z,86.80
2023-05-05T01:50:19.655Z,86.80
2023-05-05T01:52:49.138Z,86.82
2023-05-05T01:55:19.792Z,86.99
2023-05-05T01:57:50.379Z,87.23
2023-05-05T02:00:20.340Z,87.75
2023-05-05T02:02:50.419Z,88.54
2023-05-05T02:05:22.039Z,88.80
2023-05-05T02:07:53.339Z,88.57
2023-05-05T02:10:21.856Z,88.24
2023-05-05T02:12:52.405Z,88.02
2023-05-05T02:15:23.799Z,87.98
2023-05-05T02:17:53.217Z,88.19
2023-05-05T02:20:22.717Z,88.15
2023-05-05T02:22:50.955Z,88.20
2023-05-05T02:25:19.124Z,88.38
2023-05-05T02:27:50.666Z,88.53
2023-05-05T02:30:21.084Z,88.56
2023-05-05T02:33:06.768Z,88.65
2023-05-05T02:35:44.018Z,88.74
2023-05-05T02:38:17.630Z,88.62
2023-05-05T02:40:49.994Z,89.25
2023-05-05T02:43:22.041Z,89.54
2023-05-05T02:45:50.610Z,89.27
2023-05-05T02:48:21.152Z,89.08
2023-05-05T02:50:50.354Z,89.30
2023-05-05T02:53:29.597Z,89.97
2023-05-05T02:56:21.072Z,90.97
2023-05-05T02:59:16.677Z,91.13
2023-05-05T03:02:08.492Z,90.92
2023-05-05T03:04:46.031Z,90.68
2023-05-05T03:07:26.467Z,90.81
2023-05-05T03:10:06.598Z,90.58
2023-05-05T03:12:47.075Z,90.36
2023-05-05T03:15:31.543Z,90.33
2023-05-05T03:18:01.786Z,90.20
2023-05-05T03:20:31.232Z,90.31
2023-05-05T03:23:02.822Z,90.62
2023-05-05T03:25:48.845Z,90.71
2023-05-05T03:28:37.177Z,90.97
2023-05-05T03:31:12.352Z,91.26
2023-05-05T03:33:40.850Z,91.34
2023-05-05T03:36:09.077Z,91.93
2023-05-05T03:38:37.268Z,91.97
2023-05-05T03:41:05.988Z,91.69
2023-05-05T03:43:34.645Z,91.53
2023-05-05T03:46:03.467Z,91.55
2023-05-05T03:48:32.077Z,91.65
2023-05-05T03:51:00.602Z,91.82
2023-05-05T03:53:29.816Z,92.32
2023-05-05T03:55:58.548Z,92.24
2023-05-05T03:58:27.042Z,92.62
2023-05-05T04:00:55.186Z,92.67
2023-05-05T04:03:23.812Z,92.41
2023-05-05T04:05:52.116Z,92.52
2023-05-05T04:08:21.175Z,92.26
2023-05-05T04:10:49.344Z,91.97
2023-05-05T04:13:17.579Z,91.85
2023-05-05T04:15:46.518Z,91.92
2023-05-05T04:18:15.546Z,91.96
2023-05-05T04:20:44.495Z,92.03
2023-05-05T04:23:12.922Z,92.12
2023-05-05T04:25:41.424Z,92.14
2023-05-05T04:28:10.786Z,92.11
2023-05-05T04:30:39.533Z,91.96
2023-05-05T04:33:07.718Z,92.05
2023-05-05T04:35:35.862Z,91.73
2023-05-05T04:38:03.978Z,91.44
2023-05-05T04:40:32.311Z,91.18
2023-05-05T04:43:00.688Z,91.00
2023-05-05T04:45:29.767Z,90.62
2023-05-05T04:47:57.886Z,90.45
2023-05-05T04:50:26.105Z,90.44
2023-05-05T04:52:54.426Z,90.32
2023-05-05T04:55:22.513Z,90.30
2023-05-05T04:57:50.737Z,90.16
2023-05-05T05:00:18.955Z,89.72
2023-05-05T05:02:47.420Z,89.13
2023-05-05T05:05:15.634Z,88.52
2023-05-05T05:07:44.140Z,87.54
2023-05-05T05:10:12.230Z,86.97
2023-05-05T05:12:40.682Z,86.62
2023-05-05T05:15:09.916Z,84.74
2023-05-05T05:17:38.146Z,82.91
2023-05-05T05:20:07.573Z,82.14
2023-05-05T05:22:38.805Z,80.90
2023-05-05T05:25:09.019Z,79.01
2023-05-05T05:27:37.819Z,79.13
2023-05-05T05:30:07.179Z,77.35
2023-05-05T05:32:36.145Z,76.29
2023-05-05T05:35:05.101Z,76.45
2023-05-05T05:37:37.109Z,76.27
2023-05-05T05:40:06.913Z,76.35
2023-05-05T05:42:35.504Z,75.92
2023-05-05T05:45:04.718Z,74.62
2023-05-05T05:47:33.240Z,74.45
2023-05-05T05:50:01.844Z,73.62
2023-05-05T05:52:31.350Z,72.90
2023-05-05T05:54:59.440Z,73.10
2023-05-05T05:57:27.973Z,72.73
2023-05-05T05:59:56.904Z,72.61
2023-05-05T06:02:27.236Z,72.43
2023-05-05T06:04:56.099Z,72.09
2023-05-05T06:07:24.386Z,71.74
2023-05-05T06:09:52.468Z,70.36
2023-05-05T06:12:21.105Z,70.00
2023-05-05T06:14:49.460Z,69.02
2023-05-05T06:17:17.540Z,67.53
2023-05-05T06:19:45.743Z,67.30
2023-05-05T06:22:13.957Z,67.71
2023-05-05T06:24:42.214Z,66.94
2023-05-05T06:27:10.640Z,64.51
2023-05-05T06:29:38.798Z,65.11
2023-05-05T06:32:08.512Z,63.42
2023-05-05T06:34:36.591Z,61.95
2023-05-05T06:37:04.765Z,59.88
2023-05-05T06:39:32.761Z,58.35
2023-05-05T06:42:02.116Z,58.03
2023-05-05T06:44:31.263Z,58.00
2023-05-05T06:46:59.480Z,56.79
2023-05-05T06:49:27.727Z,57.33
2023-05-05T06:51:57.803Z,57.49
2023-05-05T06:54:28.119Z,56.91
2023-05-05T06:56:58.190Z,55.70
2023-05-05T06:59:27.610Z,54.59
2023-05-05T07:01:56.594Z,54.15
2023-05-05T07:04:24.810Z,53.22
2023-05-05T07:06:53.027Z,52.65
2023-05-05T07:09:21.495Z,52.74
2023-05-05T07:11:49.742Z,52.38
2023-05-05T07:14:18.126Z,50.67
2023-05-05T07:16:46.543Z,50.02
2023-05-05T07:19:14.642Z,49.82
2023-05-05T07:21:42.862Z,49.75
2023-05-05T07:24:11.146Z,49.28
2023-05-05T07:26:39.293Z,49.05
2023-05-05T07:29:08.017Z,49.26
2023-05-05T07:31:36.075Z,48.36
2023-05-05T07:34:04.509Z,47.81
2023-05-05T07:36:33.095Z,47.28
2023-05-05T07:39:01.889Z,47.04
2023-05-05T07:41:30.096Z,45.77
2023-05-05T07:43:58.364Z,46.08
2023-05-05T07:46:27.077Z,46.00
2023-05-05T07:48:57.287Z,44.52
2023-05-05T07:51:26.632Z,43.57
2023-05-05T07:53:56.850Z,42.86
2023-05-05T07:56:25.670Z,42.51
2023-05-05T07:58:53.870Z,42.13
2023-05-05T08:01:21.996Z,41.73
2023-05-05T08:03:50.177Z,41.26
2023-05-05T08:06:22.425Z,41.81
2023-05-05T08:08:51.305Z,40.97
2023-05-05T08:11:20.877Z,40.77
2023-05-05T08:13:49.397Z,40.68
2023-05-05T08:16:17.711Z,39.41
2023-05-05T08:18:46.310Z,38.25
2023-05-05T08:21:14.403Z,38.62
2023-05-05T08:23:42.561Z,38.50
2023-05-05T08:26:10.788Z,39.18
2023-05-05T08:28:39.061Z,37.71
2023-05-05T08:31:09.135Z,38.08
2023-05-05T08:33:37.401Z,37.32
2023-05-05T08:36:05.870Z,37.10
2023-05-05T08:38:34.037Z,36.97
2023-05-05T08:41:02.189Z,37.20
2023-05-05T08:43:30.501Z,36.97
2023-05-05T08:45:59.844Z,35.72
2023-05-05T08:48:30.001Z,36.06
2023-05-05T08:51:01.366Z,36.35
2023-05-05T08:53:45.981Z,35.85
2023-05-05T08:56:18.036Z,35.62
2023-05-05T08:58:48.401Z,36.16
2023-05-05T09:01:18.050Z,35.74
2023-05-05T09:03:46.331Z,35.27
2023-05-05T09:06:16.230Z,35.28
2023-05-05T09:08:45.164Z,35.65
2023-05-05T09:11:15.733Z,34.75
2023-05-05T09:13:44.110Z,33.86
2023-05-05T09:16:12.265Z,33.52
2023-05-05T09:18:42.708Z,32.84
2023-05-05T09:21:24.920Z,32.97
2023-05-05T09:24:09.073Z,32.62
2023-05-05T09:26:46.596Z,32.91
2023-05-05T09:29:21.906Z,32.44
2023-05-05T09:32:10.951Z,32.24
2023-05-05T09:34:39.204Z,32.04
2023-05-05T09:37:08.232Z,32.44
2023-05-05T09:39:36.722Z,32.86
2023-05-05T09:42:05.080Z,32.38
2023-05-05T09:44:35.748Z,33.02
2023-05-05T09:47:09.413Z,33.37
2023-05-05T09:49:43.169Z,33.48
2023-05-05T09:52:17.882Z,33.67
2023-05-05T09:54:54.259Z,33.68
2023-05-05T09:57:27.970Z,33.27
2023-05-05T10:00:04.255Z,33.33
2023-05-05T10:02:36.383Z,32.27
2023-05-05T10:05:16.151Z,31.81
2023-05-05T10:07:46.739Z,31.60
2023-05-05T10:10:17.116Z,30.99
2023-05-05T10:12:50.042Z,30.68
2023-05-05T10:15:18.709Z,30.79
2023-05-05T10:20:25.275Z,30.23
2023-05-05T10:22:57.679Z,29.84
2023-05-05T10:25:33.811Z,29.62
2023-05-05T10:28:06.825Z,29.62
2023-05-05T10:30:41.321Z,30.18
2023-05-05T10:33:30.398Z,30.42
2023-05-05T10:36:06.668Z,29.92
2023-05-05T10:38:36.209Z,30.00
2023-05-05T10:41:05.788Z,30.25
2023-05-05T10:43:34.296Z,30.13
2023-05-05T10:46:04.817Z,29.73
2023-05-05T10:48:36.506Z,29.71
2023-05-05T10:51:10.930Z,29.57
2023-05-05T10:53:52.203Z,29.25
2023-05-05T10:56:28.149Z,28.93
2023-05-05T10:59:00.271Z,28.16
2023-05-05T11:01:36.537Z,28.55
2023-05-05T11:04:18.256Z,28.22
2023-05-05T11:07:27.133Z,27.89
2023-05-05T11:09:57.470Z,27.86
2023-05-05T11:12:25.756Z,27.06
2023-05-05T11:15:31.169Z,26.75
2023-05-05T11:18:05.889Z,26.33
2023-05-05T11:20:35.129Z,26.21
2023-05-05T11:23:03.340Z,26.46
2023-05-05T11:25:38.180Z,26.38
2023-05-05T11:28:17.551Z,25.96
2023-05-05T11:30:55.291Z,25.80
2023-05-05T11:33:38.611Z,26.00
2023-05-05T11:36:12.218Z,26.23
2023-05-05T11:38:46.495Z,26.25
2023-05-05T11:41:32.990Z,26.50
2023-05-05T11:44:15.847Z,26.38
2023-05-05T11:46:53.208Z,25.74
2023-05-05T11:49:31.703Z,26.39
2023-05-05T11:52:02.586Z,26.58
2023-05-05T11:54:31.548Z,26.77
2023-05-05T11:57:09.292Z,26.35
2023-05-05T11:59:59.811Z,26.48
2023-05-05T12:02:30.048Z,26.45
2023-05-05T12:05:00.181Z,26.60
2023-05-05T12:07:31.786Z,25.95
2023-05-05T12:10:00.923Z,25.74
2023-05-05T12:12:40.714Z,26.15
2023-05-05T12:15:10.434Z,26.66
2023-05-05T12:17:42.815Z,26.59
2023-05-05T12:20:12.278Z,26.72
2023-05-05T12:22:41.134Z,26.17
2023-05-05T12:25:09.928Z,25.79
2023-05-05T12:27:40.396Z,25.48
2023-05-05T12:30:14.633Z,25.58
2023-05-05T12:32:43.658Z,25.49
2023-05-05T12:35:13.004Z,25.72
2023-05-05T12:37:42.252Z,25.30
2023-05-05T12:40:49.709Z,24.98
2023-05-05T12:43:36.036Z,25.11
2023-05-05T12:46:10.414Z,24.96
2023-05-05T12:48:40.826Z,24.94
2023-05-05T12:51:17.620Z,25.17
2023-05-05T12:53:47.654Z,25.31
2023-05-05T12:56:35.711Z,25.41
2023-05-05T12:59:08.197Z,25.39
2023-05-05T13:01:38.143Z,25.06
2023-05-05T13:04:10.878Z,25.16
2023-05-05T13:07:02.853Z,25.35
2023-05-05T13:09:30.971Z,25.08
2023-05-05T13:11:59.201Z,25.11
2023-05-05T13:14:27.304Z,25.05
2023-05-05T13:16:55.665Z,25.36
2023-05-05T13:19:27.746Z,24.88
2023-05-05T13:21:57.553Z,24.63
2023-05-05T13:24:42.337Z,24.46
2023-05-05T13:27:14.945Z,24.92
2023-05-05T13:29:43.868Z,24.70
2023-05-05T13:32:12.033Z,24.91
2023-05-05T13:34:40.300Z,25.01
2023-05-05T13:37:08.755Z,25.23
2023-05-05T13:39:37.070Z,25.57
2023-05-05T13:42:07.563Z,25.52
2023-05-05T13:44:37.126Z,25.31
2023-05-05T13:47:05.799Z,25.19
2023-05-05T13:49:35.990Z,25.43
2023-05-05T13:52:04.115Z,25.61
2023-05-05T13:54:32.513Z,25.50
2023-05-05T13:57:00.590Z,25.23
2023-05-05T13:59:28.652Z,25.06
2023-05-05T14:01:56.800Z,25.51
2023-05-05T14:04:25.271Z,25.31
2023-05-05T14:06:53.599Z,24.86
2023-05-05T14:09:21.956Z,24.80
2023-05-05T14:11:50.244Z,25.40
2023-05-05T14:14:19.792Z,25.53
2023-05-05T14:16:49.986Z,25.80
2023-05-05T14:19:20.959Z,25.79
2023-05-05T14:21:49.110Z,25.41
2023-05-05T14:24:17.250Z,25.42
2023-05-05T14:26:45.485Z,25.76
2023-05-05T14:29:13.638Z,25.97
2023-05-05T14:31:41.827Z,26.26
2023-05-05T14:34:10.090Z,26.36
2023-05-05T14:36:38.230Z,26.39
2023-05-05T14:39:06.407Z,26.54
2023-05-05T14:41:34.655Z,26.88
2023-05-05T14:44:02.772Z,26.77
2023-05-05T14:46:31.779Z,26.89
2023-05-05T14:49:00.240Z,26.64
2023-05-05T14:51:28.387Z,26.08
2023-05-05T14:53:56.491Z,26.17
2023-05-05T14:56:26.620Z,26.27
2023-05-05T14:58:54.833Z,26.18
2023-05-05T15:01:24.912Z,26.50
2023-05-05T15:03:54.115Z,26.91
2023-05-05T15:06:22.488Z,27.06
2023-05-05T15:08:50.565Z,26.85
2023-05-05T15:11:18.724Z,26.56
2023-05-05T15:13:46.964Z,26.69
2023-05-05T15:16:15.299Z,26.90
2023-05-05T15:18:43.482Z,27.10
2023-05-05T15:21:11.660Z,27.13
2023-05-05T15:23:39.794Z,27.33
2023-05-05T15:26:07.904Z,27.27
2023-05-05T15:28:36.199Z,27.48
2023-05-05T15:31:06.101Z,27.15
2023-05-05T15:33:34.850Z,27.25
2023-05-05T15:36:02.988Z,27.53
2023-05-05T15:38:31.447Z,27.58
2023-05-05T15:41:00.132Z,27.76
2023-05-05T15:43:28.219Z,27.80
2023-05-05T15:45:56.351Z,27.39
2023-05-05T15:48:24.806Z,27.54
2023-05-05T15:50:52.921Z,27.72
2023-05-05T15:53:21.102Z,27.64
2023-05-05T15:55:49.701Z,27.76
2023-05-05T15:58:18.514Z,27.75
2023-05-05T16:00:46.569Z,28.13
2023-05-05T16:03:14.812Z,28.38
2023-05-05T16:05:51.778Z,28.51
2023-05-05T16:08:20.062Z,28.68
2023-05-05T16:10:48.144Z,28.91
2023-05-05T16:13:16.465Z,29.13
2023-05-05T16:15:44.841Z,29.32
2023-05-05T16:18:13.037Z,29.40
2023-05-05T16:20:41.291Z,29.44
2023-05-05T16:23:09.484Z,29.59
2023-05-05T16:25:37.784Z,29.71
2023-05-05T16:28:06.135Z,29.66
2023-05-05T16:30:34.299Z,29.59
2023-05-05T16:33:02.536Z,29.47
2023-05-05T16:35:30.754Z,29.60
2023-05-05T16:37:58.977Z,30.01
2023-05-05T16:40:27.094Z,30.13
2023-05-05T16:42:55.602Z,30.42
2023-05-05T16:45:24.455Z,30.45
2023-05-05T16:47:52.714Z,30.64
2023-05-05T16:50:22.302Z,30.83
2023-05-05T16:52:51.537Z,31.26
2023-05-05T16:55:19.869Z,31.66
2023-05-05T16:57:48.336Z,31.84
2023-05-05T17:00:16.782Z,32.18
2023-05-05T17:02:44.917Z,32.50
2023-05-05T17:05:13.439Z,32.99
2023-05-05T17:07:41.767Z,33.42
2023-05-05T17:10:10.320Z,33.70
2023-05-05T17:12:38.475Z,33.88
2023-05-05T17:15:08.092Z,34.10
2023-05-05T17:17:36.551Z,34.58
2023-05-05T17:20:05.293Z,34.99
2023-05-05T17:22:33.513Z,35.53
2023-05-05T17:25:01.721Z,35.88
2023-05-05T17:27:29.862Z,36.07
2023-05-05T17:29:58.124Z,36.50
2023-05-05T17:32:26.598Z,36.91
2023-05-05T17:34:54.648Z,37.26
2023-05-05T17:37:22.784Z,37.54
2023-05-05T17:39:51.488Z,37.85
2023-05-05T17:42:23.117Z,39.20
2023-05-05T17:44:51.603Z,40.11
2023-05-05T17:47:22.472Z,41.05
2023-05-05T17:49:53.842Z,41.86
2023-05-05T17:52:23.316Z,42.68
2023-05-05T17:54:52.137Z,43.25
2023-05-05T17:57:23.142Z,44.71
2023-05-05T17:59:53.347Z,45.04
2023-05-05T18:02:22.179Z,45.41
2023-05-05T18:04:50.335Z,45.82
2023-05-05T18:07:18.483Z,46.56
2023-05-05T18:09:46.732Z,46.86
2023-05-05T18:12:14.942Z,47.15
2023-05-05T18:14:43.311Z,47.20
2023-05-05T18:17:11.442Z,47.87
2023-05-05T18:19:42.959Z,48.06
2023-05-05T18:22:12.161Z,48.54
2023-05-05T18:24:40.426Z,48.79
2023-05-05T18:27:08.915Z,49.14
2023-05-05T18:29:37.035Z,49.61
2023-05-05T18:32:06.407Z,49.92
2023-05-05T18:34:34.920Z,50.56
2023-05-05T18:37:03.026Z,51.25
2023-05-05T18:39:31.170Z,51.30
2023-05-05T18:41:59.430Z,51.45
2023-05-05T18:44:27.639Z,52.37
2023-05-05T18:46:55.730Z,52.33
2023-05-05T18:49:24.921Z,52.69
2023-05-05T18:51:53.900Z,52.96
2023-05-05T18:54:22.389Z,53.84
2023-05-05T18:56:50.414Z,53.82
2023-05-05T18:59:18.725Z,54.20
2023-05-05T19:01:46.851Z,54.68
2023-05-05T19:04:29.370Z,54.50
2023-05-05T19:06:59.593Z,55.03
2023-05-05T19:09:28.094Z,55.14
2023-05-05T19:11:56.557Z,55.85
2023-05-05T19:14:25.080Z,56.61
2023-05-05T19:16:55.936Z,56.36
2023-05-05T19:19:24.432Z,56.64
2023-05-05T19:21:52.629Z,57.08
2023-05-05T19:24:20.774Z,57.62
2023-05-05T19:26:49.048Z,57.47
2023-05-05T19:29:17.469Z,57.83
2023-05-05T19:31:45.685Z,58.78
2023-05-05T19:34:13.806Z,58.68
2023-05-05T19:36:41.775Z,58.87
2023-05-05T19:39:09.803Z,59.11
2023-05-05T19:41:37.974Z,59.68
2023-05-05T19:44:06.251Z,59.60
2023-05-05T19:46:34.443Z,59.67
2023-05-05T19:49:02.583Z,60.08
2023-05-05T19:51:31.700Z,60.62
2023-05-05T19:53:59.973Z,60.77
2023-05-05T19:56:28.278Z,60.59
2023-05-05T19:58:59.384Z,60.74
2023-05-05T20:01:29.192Z,60.70
2023-05-05T20:03:57.498Z,60.89
2023-05-05T20:06:27.039Z,61.61
2023-05-05T20:08:55.640Z,61.54
2023-05-05T20:11:25.862Z,61.96
2023-05-05T20:13:53.968Z,62.31
2023-05-05T20:16:22.486Z,63.24
2023-05-05T20:18:51.070Z,63.64
2023-05-05T20:21:19.621Z,64.04
2023-05-05T20:23:47.871Z,64.78
2023-05-05T20:26:16.335Z,64.95
2023-05-05T20:28:45.856Z,64.72
2023-05-05T20:31:14.434Z,65.18
2023-05-05T20:33:42.612Z,64.71
2023-05-05T20:36:11.470Z,65.10
2023-05-05T20:38:40.087Z,65.17
2023-05-05T20:41:08.196Z,65.99
2023-05-05T20:43:36.820Z,65.55
2023-05-05T20:46:04.986Z,65.99
2023-05-05T20:48:33.303Z,67.34
2023-05-05T20:51:06.678Z,67.38
2023-05-05T20:53:34.712Z,67.15
2023-05-05T20:56:05.659Z,67.15
2023-05-05T20:58:34.539Z,67.44
2023-05-05T21:01:02.750Z,67.07
2023-05-05T21:03:30.978Z,67.72
2023-05-05T21:05:59.278Z,67.52
2023-05-05T21:08:27.500Z,67.48
2023-05-05T21:10:55.576Z,67.61
2023-05-05T21:13:24.229Z,67.41
2023-05-05T21:15:52.313Z,67.86
2023-05-05T21:18:20.431Z,68.64
2023-05-05T21:20:48.675Z,70.31
2023-05-05T21:23:16.712Z,70.41
2023-05-05T21:25:44.692Z,71.45
2023-05-05T21:28:13.508Z,71.48
2023-05-05T21:30:42.003Z,71.54
2023-05-05T21:33:10.141Z,72.07
2023-05-05T21:35:38.286Z,71.45
2023-05-05T21:38:06.386Z,71.93
2023-05-05T21:40:34.469Z,71.94
2023-05-05T21:43:02.969Z,71.25
2023-05-05T21:45:31.181Z,71.16
2023-05-05T21:47:59.462Z,71.16
2023-05-05T21:50:29.391Z,71.53
2023-05-05T21:52:58.455Z,71.52
2023-05-05T21:55:26.522Z,71.28
2023-05-05T21:57:54.854Z,71.67
2023-05-05T22:00:23.125Z,71.56
2023-05-05T22:02:51.299Z,72.09
2023-05-05T22:05:19.641Z,72.99
2023-05-05T22:07:47.844Z,73.07
2023-05-05T22:10:16.721Z,73.01
2023-05-05T22:12:44.887Z,72.52
2023-05-05T22:15:13.115Z,72.75
2023-05-05T22:17:41.282Z,72.95
2023-05-05T22:20:10.632Z,73.12
2023-05-05T22:22:39.229Z,73.30
2023-05-05T22:25:08.191Z,73.87
2023-05-05T22:27:36.564Z,74.14
2023-05-05T22:30:06.047Z,74.61
2023-05-05T22:32:34.254Z,74.35
2023-05-05T22:35:02.497Z,74.25
2023-05-05T22:37:30.738Z,74.74
2023-05-05T22:39:58.763Z,74.96
2023-05-05T22:42:26.996Z,75.33
2023-05-05T22:44:55.244Z,75.50
2023-05-05T22:47:23.407Z,75.97
2023-05-05T22:49:51.615Z,75.89
2023-05-05T22:52:19.842Z,75.37
2023-05-05T22:54:47.977Z,75.62
2023-05-05T22:57:16.342Z,75.82
2023-05-05T22:59:44.545Z,75.75
2023-05-05T23:02:12.727Z,75.93
2023-05-05T23:04:41.058Z,75.92
2023-05-05T23:07:09.444Z,76.58
2023-05-05T23:09:37.666Z,76.73
2023-05-05T23:12:05.858Z,76.88
2023-05-05T23:14:33.984Z,77.10
2023-05-05T23:17:02.302Z,76.89
2023-05-05T23:19:32.687Z,77.08
2023-05-05T23:22:03.010Z,77.30
2023-05-05T23:24:32.528Z,77.55
2023-05-05T23:27:04.697Z,77.51
2023-05-05T23:29:32.827Z,77.75
2023-05-05T23:32:00.905Z,77.90
2023-05-05T23:34:29.048Z,78.29
2023-05-05T23:36:57.250Z,78.33
2023-05-05T23:39:25.420Z,78.42
2023-05-05T23:41:53.536Z,78.53
2023-05-05T23:44:21.598Z,79.00
2023-05-05T23:46:49.768Z,79.08
2023-05-05T23:49:17.873Z,78.94
2023-05-05T23:51:45.948Z,78.94
2023-05-05T23:54:14.138Z,79.11
2023-05-05T23:56:42.783Z,79.88
2023-05-05T23:59:11.134Z,80.02
